Time;durP1;ratioP1;P1;durP2;ratioP2;P2;SDS_P1;SDS_P2;PMS_P1;PMS_P2;Temp;Humidity;BMP_temperature;BMP_pressure;BME280_temperature;BME280_humidity;BME280_pressure;Samples;Min_cycle;Max_cycle;Signal;HPM_P1;HPM_P2
2022/10/13 00:02:13;;;;;;;17.10;10.30;;;11.20;99.90;;;;;;5051486;28;20213;-65
2022/10/13 00:04:40;;;;;;;17.37;11.20;;;11.20;99.90;;;;;;5050946;28;20201;-64
2022/10/13 00:07:08;;;;;;;18.07;11.30;;;11.20;99.90;;;;;;5049527;28;20276;-65
2022/10/13 00:09:35;;;;;;;15.27;11.17;;;11.20;99.90;;;;;;5050509;28;20255;-65
2022/10/13 00:12:01;;;;;;;19.33;11.97;;;11.10;99.90;;;;;;5051497;28;20212;-64
2022/10/13 00:14:28;;;;;;;17.37;11.43;;;11.10;99.90;;;;;;5049802;28;20712;-64
2022/10/13 00:16:55;;;;;;;13.60;11.30;;;11.10;99.90;;;;;;5051693;28;20236;-69
2022/10/13 00:19:21;;;;;;;18.00;11.33;;;11.10;99.90;;;;;;5051642;28;20205;-66
2022/10/13 00:21:48;;;;;;;17.93;10.97;;;11.10;99.90;;;;;;5052091;28;20209;-66
2022/10/13 00:24:17;;;;;;;16.90;11.07;;;11.10;99.90;;;;;;5052130;28;20216;-68
2022/10/13 00:26:43;;;;;;;16.90;11.47;;;11.10;99.90;;;;;;5052026;28;20736;-69
2022/10/13 00:29:10;;;;;;;17.03;11.40;;;11.20;99.90;;;;;;5051506;28;20229;-68
2022/10/13 00:31:37;;;;;;;19.13;11.73;;;11.20;99.90;;;;;;5052079;28;20202;-67
2022/10/13 00:34:03;;;;;;;16.33;10.77;;;11.30;99.90;;;;;;5052507;28;20216;-68
2022/10/13 00:36:31;;;;;;;17.67;11.20;;;11.40;99.90;;;;;;5052209;28;20553;-68
2022/10/13 00:38:58;;;;;;;16.37;11.40;;;11.50;99.90;;;;;;5051781;28;20241;-67
2022/10/13 00:41:26;;;;;;;18.53;11.53;;;11.50;99.90;;;;;;5052102;28;20206;-67
2022/10/13 00:43:57;;;;;;;16.90;11.13;;;11.50;99.90;;;;;;5052071;28;20206;-67
2022/10/13 00:46:27;;;;;;;17.03;10.70;;;11.60;99.90;;;;;;5052117;28;20233;-69
2022/10/13 00:48:55;;;;;;;18.60;11.40;;;11.60;99.90;;;;;;5051357;28;20324;-67
2022/10/13 00:51:26;;;;;;;16.20;11.60;;;11.60;99.90;;;;;;5052063;28;20678;-67
2022/10/13 00:53:55;;;;;;;20.67;11.97;;;11.60;99.90;;;;;;5052097;28;20213;-66
2022/10/13 00:56:25;;;;;;;20.47;11.97;;;11.60;99.90;;;;;;5051948;28;20205;-67
2022/10/13 00:58:54;;;;;;;16.83;11.20;;;11.60;99.90;;;;;;5051373;28;20205;-67
2022/10/13 01:01:21;;;;;;;14.90;10.80;;;11.50;99.90;;;;;;5051626;28;20695;-65
2022/10/13 01:03:48;;;;;;;15.50;10.83;;;11.50;99.90;;;;;;5051947;28;20212;-67
2022/10/13 01:06:16;;;;;;;20.33;11.30;;;11.50;99.90;;;;;;5052716;28;20205;-68
2022/10/13 01:08:42;;;;;;;16.63;11.07;;;11.40;99.90;;;;;;5055087;28;20225;-67
2022/10/13 01:11:40;;;;;;;20.60;11.03;;;11.40;99.90;;;;;;5055824;28;20716;-67
2022/10/13 01:14:18;;;;;;;16.57;10.27;;;11.40;99.90;;;;;;5056126;28;20209;-67
2022/10/13 01:16:55;;;;;;;13.57;10.73;;;11.40;99.90;;;;;;5056102;28;20260;-67
2022/10/13 01:19:54;;;;;;;18.23;11.23;;;11.40;99.90;;;;;;5055220;28;20672;-67
2022/10/13 01:22:36;;;;;;;17.97;10.90;;;11.30;99.90;;;;;;5051651;28;20209;-67
2022/10/13 01:25:14;;;;;;;21.17;10.43;;;11.40;99.90;;;;;;5055917;28;20202;-67
2022/10/13 01:27:58;;;;;;;17.87;10.37;;;11.30;99.90;;;;;;5054782;28;20739;-67
2022/10/13 01:30:26;;;;;;;16.87;10.30;;;11.30;99.90;;;;;;5055545;28;20209;-66
2022/10/13 01:33:13;;;;;;;14.80;10.53;;;11.20;99.90;;;;;;5055851;28;20208;-66
2022/10/13 01:35:56;;;;;;;17.87;9.93;;;11.10;99.90;;;;;;5055722;28;20208;-66
2022/10/13 01:38:33;;;;;;;20.73;10.47;;;11.00;99.90;;;;;;5055240;28;20330;-63
2022/10/13 01:41:05;;;;;;;15.50;10.13;;;11.10;99.90;;;;;;5055280;28;20212;-63
2022/10/13 01:43:37;;;;;;;19.00;10.10;;;11.20;99.90;;;;;;5055859;28;20244;-64
2022/10/13 01:46:09;;;;;;;18.63;10.63;;;11.30;99.90;;;;;;5055255;28;20263;-64
2022/10/13 01:48:38;;;;;;;17.83;10.07;;;11.30;99.90;;;;;;5054951;28;20226;-64
2022/10/13 01:51:09;;;;;;;14.87;9.77;;;11.30;99.90;;;;;;5055024;28;20222;-64
2022/10/13 01:53:37;;;;;;;16.17;11.10;;;11.30;99.90;;;;;;5055409;28;20243;-64
2022/10/13 01:56:04;;;;;;;21.30;11.23;;;11.40;99.90;;;;;;5054863;28;20728;-64
2022/10/13 01:58:34;;;;;;;15.90;10.73;;;11.50;99.90;;;;;;5054466;28;20210;-64
2022/10/13 02:01:16;;;;;;;17.67;11.37;;;11.50;99.90;;;;;;5055084;28;20209;-64
2022/10/13 02:03:52;;;;;;;19.27;11.70;;;11.50;99.90;;;;;;5054785;28;20688;-64
2022/10/13 02:06:23;;;;;;;17.83;11.33;;;11.60;99.90;;;;;;5054914;28;20213;-64
2022/10/13 02:09:00;;;;;;;13.63;11.03;;;11.80;99.90;;;;;;5054590;28;20229;-65
2022/10/13 02:11:27;;;;;;;17.70;10.70;;;11.90;99.90;;;;;;5054841;28;20205;-65
2022/10/13 02:13:59;;;;;;;25.23;11.70;;;12.00;99.90;;;;;;5054669;28;20210;-65
2022/10/13 02:16:31;;;;;;;17.40;10.97;;;12.10;99.90;;;;;;5054425;28;20632;-64
2022/10/13 02:18:58;;;;;;;15.00;10.03;;;12.20;99.90;;;;;;5053888;28;20202;-65
2022/10/13 02:21:25;;;;;;;16.33;10.87;;;12.20;99.90;;;;;;5054627;28;20206;-64
2022/10/13 02:23:52;;;;;;;17.63;10.73;;;12.20;99.90;;;;;;5054528;28;20233;-65
2022/10/13 02:26:19;;;;;;;15.20;10.67;;;12.30;99.90;;;;;;5054370;28;20210;-64
2022/10/13 02:28:46;;;;;;;15.33;10.70;;;12.30;99.90;;;;;;5053560;28;20225;-65
2022/10/13 02:31:13;;;;;;;18.03;11.00;;;12.30;99.90;;;;;;5054466;28;20212;-64
2022/10/13 02:33:41;;;;;;;14.70;10.87;;;12.40;99.90;;;;;;5054465;28;20216;-65
2022/10/13 02:36:08;;;;;;;18.20;10.80;;;12.50;99.90;;;;;;5053971;28;20209;-65
2022/10/13 02:38:35;;;;;;;16.23;10.67;;;12.50;99.90;;;;;;5052456;28;20647;-64
2022/10/13 02:41:02;;;;;;;18.67;11.23;;;12.60;99.90;;;;;;5053072;28;20206;-66
2022/10/13 02:43:29;;;;;;;19.90;10.77;;;12.60;99.90;;;;;;5052777;28;20252;-65
2022/10/13 02:45:56;;;;;;;16.80;10.27;;;12.70;99.90;;;;;;5052980;28;20591;-64
2022/10/13 02:48:23;;;;;;;14.73;10.13;;;12.70;99.90;;;;;;5052295;28;20229;-64
2022/10/13 02:50:51;;;;;;;16.23;10.23;;;12.80;99.90;;;;;;5052911;28;20201;-64
2022/10/13 02:53:17;;;;;;;14.60;9.93;;;12.80;99.90;;;;;;5052885;28;20213;-65
2022/10/13 02:55:44;;;;;;;17.53;10.00;;;12.90;99.90;;;;;;5052680;28;20669;-65
2022/10/13 02:58:11;;;;;;;16.03;10.63;;;13.00;99.90;;;;;;5052311;28;20232;-65
2022/10/13 03:00:39;;;;;;;16.50;10.70;;;13.00;99.90;;;;;;5052607;28;20240;-64
2022/10/13 03:03:06;;;;;;;14.57;10.63;;;13.10;99.90;;;;;;5052757;28;20236;-64
2022/10/13 03:05:33;;;;;;;13.43;10.33;;;13.20;99.90;;;;;;5052655;28;20206;-65
2022/10/13 03:08:01;;;;;;;18.30;10.33;;;13.20;99.90;;;;;;5051959;28;20270;-64
2022/10/13 03:10:28;;;;;;;14.87;10.23;;;13.30;99.90;;;;;;5052325;28;20238;-64
2022/10/13 03:12:55;;;;;;;15.00;10.70;;;13.30;99.90;;;;;;5052737;28;20562;-64
2022/10/13 03:15:21;;;;;;;20.10;11.23;;;13.40;99.90;;;;;;5052444;28;20205;-64
2022/10/13 03:17:49;;;;;;;16.40;11.10;;;13.50;99.90;;;;;;5051883;28;20495;-64
2022/10/13 03:20:16;;;;;;;16.53;10.90;;;13.50;99.90;;;;;;5052437;28;20201;-64
2022/10/13 03:22:43;;;;;;;18.40;10.40;;;13.50;99.90;;;;;;5052367;28;20209;-66
2022/10/13 03:25:11;;;;;;;15.47;10.33;;;13.50;99.90;;;;;;5052306;28;20213;-65
2022/10/13 03:27:37;;;;;;;14.33;10.67;;;13.50;99.90;;;;;;5051859;28;20320;-64
2022/10/13 03:30:05;;;;;;;18.50;10.57;;;13.50;99.90;;;;;;5051258;28;20233;-64
2022/10/13 03:32:32;;;;;;;14.57;10.03;;;13.40;99.90;;;;;;5052147;28;20202;-64
2022/10/13 03:34:59;;;;;;;13.27;9.77;;;13.30;99.90;;;;;;5052247;28;20209;-62
2022/10/13 03:37:26;;;;;;;18.87;9.97;;;13.20;99.90;;;;;;5015304;28;1047956;-63
2022/10/13 03:39:53;;;;;;;14.67;10.40;;;13.30;99.90;;;;;;5053170;28;20684;-63
2022/10/13 03:42:21;;;;;;;15.53;10.13;;;13.40;99.90;;;;;;5053842;28;20209;-63
2022/10/13 03:44:48;;;;;;;15.67;10.40;;;13.40;99.90;;;;;;5053808;28;20208;-64
2022/10/13 03:47:15;;;;;;;16.00;10.87;;;13.40;99.90;;;;;;5053606;28;20230;-63
2022/10/13 03:49:42;;;;;;;18.10;10.70;;;13.30;99.90;;;;;;5052998;28;20229;-63
2022/10/13 03:52:09;;;;;;;20.53;12.17;;;13.10;99.90;;;;;;5053755;28;20232;-63
2022/10/13 03:54:35;;;;;;;19.40;10.47;;;13.10;99.90;;;;;;5054030;28;20221;-65
2022/10/13 03:57:02;;;;;;;19.23;11.13;;;13.00;99.90;;;;;;5053790;28;20241;-65
2022/10/13 03:59:30;;;;;;;18.70;11.30;;;12.90;99.90;;;;;;5051986;28;20205;-64
2022/10/13 04:01:57;;;;;;;17.90;11.93;;;12.70;99.90;;;;;;5052564;28;20214;-64
2022/10/13 04:04:24;;;;;;;20.77;12.47;;;12.60;99.90;;;;;;5052439;28;20213;-64
2022/10/13 04:06:50;;;;;;;20.27;11.73;;;12.50;99.90;;;;;;5052227;28;20229;-64
2022/10/13 04:09:17;;;;;;;18.97;12.10;;;12.40;99.90;;;;;;5051881;28;20229;-65
2022/10/13 04:11:44;;;;;;;20.80;11.70;;;12.40;99.90;;;;;;5052522;28;20205;-64
2022/10/13 04:14:11;;;;;;;18.43;12.33;;;12.50;99.90;;;;;;5052334;28;20213;-64
2022/10/13 04:16:39;;;;;;;20.83;11.57;;;12.60;99.90;;;;;;5052208;28;20232;-64
2022/10/13 04:19:06;;;;;;;17.50;12.07;;;12.70;99.90;;;;;;5052086;28;20197;-64
2022/10/13 04:21:34;;;;;;;17.90;11.50;;;12.70;99.90;;;;;;5052841;28;20317;-64
2022/10/13 04:24:01;;;;;;;19.47;12.50;;;12.90;99.90;;;;;;5052239;28;20700;-64
2022/10/13 04:26:31;;;;;;;25.07;12.43;;;12.90;99.90;;;;;;5052244;28;20222;-64
2022/10/13 04:28:58;;;;;;;20.27;12.27;;;13.00;99.90;;;;;;5051846;28;20225;-64
2022/10/13 04:31:25;;;;;;;21.13;13.03;;;13.10;99.90;;;;;;5052245;28;20589;-65
2022/10/13 04:33:53;;;;;;;19.00;12.53;;;13.10;99.90;;;;;;5052184;28;20206;-64
2022/10/13 04:36:20;;;;;;;24.53;15.93;;;13.10;99.90;;;;;;5053239;28;20213;-64
2022/10/13 04:38:47;;;;;;;23.40;12.87;;;13.20;99.90;;;;;;5053204;28;20210;-64
2022/10/13 04:41:16;;;;;;;17.83;12.10;;;13.20;99.90;;;;;;5053136;28;20206;-64
2022/10/13 04:43:43;;;;;;;17.50;12.50;;;13.20;99.90;;;;;;5051835;28;20202;-65
2022/10/13 04:46:13;;;;;;;21.80;12.87;;;13.30;99.90;;;;;;5051888;28;20209;-64
2022/10/13 04:48:40;;;;;;;19.90;11.77;;;13.40;99.90;;;;;;5051518;28;20205;-64
2022/10/13 04:51:10;;;;;;;15.67;10.87;;;13.40;99.90;;;;;;5051674;28;20237;-64
2022/10/13 04:53:37;;;;;;;28.87;16.93;;;13.50;99.90;;;;;;5052200;28;20201;-65
2022/10/13 04:56:05;;;;;;;16.53;13.37;;;13.60;99.90;;;;;;5051673;28;20267;-64
2022/10/13 04:58:32;;;;;;;17.70;11.93;;;13.70;99.90;;;;;;5050766;28;20208;-64
2022/10/13 05:00:59;;;;;;;19.77;12.13;;;13.70;99.90;;;;;;5051386;28;20305;-65
2022/10/13 05:03:26;;;;;;;20.13;12.70;;;13.70;99.90;;;;;;5051656;28;20229;-64
2022/10/13 05:05:53;;;;;;;19.23;11.63;;;13.70;99.90;;;;;;5051348;28;20208;-65
2022/10/13 05:08:21;;;;;;;20.50;11.67;;;13.60;99.90;;;;;;5050766;28;20221;-64
2022/10/13 05:10:56;;;;;;;21.00;11.80;;;13.60;99.90;;;;;;5051461;28;20325;-64
2022/10/13 05:13:23;;;;;;;20.03;12.03;;;13.60;99.90;;;;;;5051283;28;20661;-64
2022/10/13 05:15:49;;;;;;;18.10;11.23;;;13.60;99.90;;;;;;5051525;28;20212;-65
2022/10/13 05:18:16;;;;;;;18.50;11.30;;;13.40;99.90;;;;;;5050855;28;20221;-65
2022/10/13 05:20:43;;;;;;;15.87;11.20;;;13.40;99.90;;;;;;5051642;28;20205;-64
2022/10/13 05:23:10;;;;;;;17.20;10.97;;;13.30;99.90;;;;;;5051792;28;20205;-64
2022/10/13 05:25:38;;;;;;;15.13;11.43;;;13.30;99.90;;;;;;5051443;28;20297;-64
2022/10/13 05:28:07;;;;;;;18.23;11.83;;;13.20;99.90;;;;;;5050621;28;20232;-64
2022/10/13 05:30:35;;;;;;;18.03;11.53;;;13.20;99.90;;;;;;5051173;28;20226;-64
2022/10/13 05:33:02;;;;;;;15.83;11.23;;;13.10;99.90;;;;;;5051348;28;20860;-63
2022/10/13 05:35:28;;;;;;;20.80;12.53;;;13.00;99.90;;;;;;5051729;28;20205;-64
2022/10/13 05:37:55;;;;;;;17.77;11.57;;;13.00;99.90;;;;;;5050633;28;20229;-64
2022/10/13 05:40:22;;;;;;;20.93;12.40;;;12.90;99.90;;;;;;5051251;28;20240;-64
2022/10/13 05:42:51;;;;;;;17.63;10.20;;;12.90;99.90;;;;;;5051407;28;20216;-64
2022/10/13 05:45:19;;;;;;;20.73;12.20;;;13.00;99.90;;;;;;5051377;28;20213;-64
2022/10/13 05:47:46;;;;;;;20.87;11.60;;;13.10;99.90;;;;;;5050468;28;20824;-64
2022/10/13 05:50:13;;;;;;;16.83;11.57;;;13.10;99.90;;;;;;5051119;28;20236;-64
2022/10/13 05:52:40;;;;;;;15.33;11.77;;;13.30;99.90;;;;;;5052541;28;20213;-64
2022/10/13 05:55:09;;;;;;;15.03;10.97;;;13.40;99.90;;;;;;5054847;28;20259;-64
2022/10/13 05:57:39;;;;;;;20.03;11.23;;;13.50;99.90;;;;;;5054091;28;20221;-64
2022/10/13 06:00:11;;;;;;;15.37;10.27;;;13.70;99.90;;;;;;5055045;28;20201;-64
2022/10/13 06:02:42;;;;;;;17.33;11.03;;;13.80;99.90;;;;;;5054802;28;20213;-64
2022/10/13 06:05:14;;;;;;;23.47;11.60;;;13.90;99.90;;;;;;5054877;28;20216;-63
2022/10/13 06:07:41;;;;;;;16.80;10.83;;;14.00;99.90;;;;;;5054017;28;20229;-64
2022/10/13 06:10:09;;;;;;;14.67;10.33;;;14.20;99.90;;;;;;5054328;28;20221;-63
2022/10/13 06:12:35;;;;;;;17.33;9.87;;;14.30;99.90;;;;;;5054579;28;20210;-64
2022/10/13 06:15:02;;;;;;;15.90;10.20;;;14.50;99.90;;;;;;5054651;28;20657;-63
2022/10/13 06:17:30;;;;;;;14.77;9.57;;;14.60;99.90;;;;;;5054269;28;20262;-64
2022/10/13 06:19:58;;;;;;;15.53;9.87;;;14.60;99.90;;;;;;5053683;28;20205;-66
2022/10/13 06:22:25;;;;;;;16.93;9.73;;;14.70;99.90;;;;;;5054426;28;20209;-62
2022/10/13 06:24:51;;;;;;;14.17;9.67;;;14.70;99.90;;;;;;5054484;28;20214;-65
2022/10/13 06:27:18;;;;;;;11.80;8.77;;;14.70;99.90;;;;;;5054253;28;20367;-62
2022/10/13 06:29:45;;;;;;;13.07;8.67;;;14.80;99.90;;;;;;5053359;28;20670;-65
2022/10/13 06:32:11;;;;;;;15.50;8.13;;;14.90;99.90;;;;;;5054075;28;20209;-64
2022/10/13 06:34:39;;;;;;;12.63;9.37;;;14.90;99.90;;;;;;5054049;28;20202;-63
2022/10/13 06:37:06;;;;;;;11.80;8.97;;;15.10;99.90;;;;;;5053934;28;20609;-64
2022/10/13 06:39:33;;;;;;;15.07;8.93;;;15.20;99.90;;;;;;5053573;28;20219;-63
2022/10/13 06:42:00;;;;;;;15.90;9.57;;;15.30;99.90;;;;;;5054009;28;20209;-64
2022/10/13 06:44:26;;;;;;;13.00;9.07;;;15.20;99.90;;;;;;5054000;28;20251;-63
2022/10/13 06:46:53;;;;;;;12.00;8.80;;;15.20;99.90;;;;;;5054570;28;20234;-63
2022/10/13 06:49:20;;;;;;;13.00;8.60;;;15.30;99.90;;;;;;5053986;28;20293;-64
2022/10/13 06:51:48;;;;;;;16.63;9.53;;;15.30;99.90;;;;;;5053872;28;20240;-64
2022/10/13 06:54:15;;;;;;;12.73;8.67;;;15.30;99.90;;;;;;5054056;28;20206;-64
2022/10/13 06:56:42;;;;;;;14.10;8.83;;;15.30;99.90;;;;;;5053750;28;20320;-64
2022/10/13 06:59:09;;;;;;;15.50;8.93;;;15.30;99.90;;;;;;5053631;28;20284;-64
2022/10/13 07:01:36;;;;;;;14.83;8.43;;;15.40;99.90;;;;;;5053890;28;20202;-65
2022/10/13 07:04:03;;;;;;;14.77;8.83;;;15.40;99.90;;;;;;5053013;28;20297;-65
2022/10/13 07:06:30;;;;;;;17.73;9.00;;;15.50;99.90;;;;;;5053707;28;20717;-64
2022/10/13 07:08:58;;;;;;;11.10;8.17;;;15.60;99.90;;;;;;5053056;28;20567;-64
2022/10/13 07:11:25;;;;;;;14.77;8.33;;;15.60;99.90;;;;;;5053589;28;20221;-63
2022/10/13 07:13:54;;;;;;;12.77;8.40;;;15.70;99.90;;;;;;5053539;28;20240;-65
2022/10/13 07:16:20;;;;;;;11.37;8.97;;;15.90;99.90;;;;;;5047194;28;20202;-68
2022/10/13 07:18:48;;;;;;;16.02;8.98;;;16.00;99.90;;;;;;5052000;28;20206;-66
2022/10/13 07:21:14;;;;;;;12.07;8.37;;;16.20;99.90;;;;;;5052159;28;20206;-66
2022/10/13 07:23:41;;;;;;;11.53;7.87;;;16.30;99.90;;;;;;5052706;28;20703;-67
2022/10/13 07:26:11;;;;;;;11.68;7.75;;;16.40;99.90;;;;;;5053374;28;20584;-65
2022/10/13 07:28:38;;;;;;;13.13;7.70;;;16.50;99.90;;;;;;5052599;28;20206;-66
2022/10/13 07:31:09;;;;;;;11.23;7.47;;;16.50;99.90;;;;;;5053631;28;20605;-61
2022/10/13 07:33:36;;;;;;;10.10;6.85;;;16.50;99.90;;;;;;5052272;28;20586;-61
2022/10/13 07:36:04;;;;;;;10.60;6.13;;;16.60;99.90;;;;;;5053435;28;20224;-61
2022/10/13 07:38:31;;;;;;;15.90;7.65;;;16.70;99.90;;;;;;5053328;28;20670;-69
2022/10/13 07:41:00;;;;;;;13.93;7.50;;;16.80;99.90;;;;;;5053401;28;20292;-61
2022/10/13 07:43:29;;;;;;;11.57;7.10;;;17.00;99.90;;;;;;5054301;28;20670;-69
2022/10/13 07:45:57;;;;;;;12.02;7.70;;;17.10;99.90;;;;;;5053291;28;20206;-63
2022/10/13 07:48:24;;;;;;;13.30;7.00;;;17.20;99.90;;;;;;5053408;28;20229;-64
2022/10/13 07:50:51;;;;;;;10.88;7.38;;;17.20;99.90;;;;;;5053093;28;20221;-64
2022/10/13 07:53:18;;;;;;;11.13;7.15;;;17.30;99.90;;;;;;5052634;28;20209;-65
2022/10/13 07:55:45;;;;;;;12.90;7.68;;;17.30;99.90;;;;;;5052611;28;20617;-66
2022/10/13 07:58:12;;;;;;;9.73;7.70;;;17.40;99.90;;;;;;5051291;28;20225;-67
2022/10/13 08:00:40;;;;;;;12.55;6.70;;;17.50;99.90;;;;;;5052473;28;20202;-67
2022/10/13 08:03:06;;;;;;;14.10;7.15;;;17.50;99.90;;;;;;5051409;28;20240;-71
2022/10/13 08:05:33;;;;;;;8.05;6.22;;;17.70;99.90;;;;;;5051389;28;20210;-64
2022/10/13 08:08:00;;;;;;;11.38;6.82;;;17.90;99.90;;;;;;5050595;28;20633;-65
2022/10/13 08:10:28;;;;;;;13.88;7.38;;;18.00;99.90;;;;;;5050954;28;20226;-66
2022/10/13 08:12:55;;;;;;;12.27;6.82;;;18.10;99.90;;;;;;5051117;28;20209;-66
2022/10/13 08:15:22;;;;;;;13.43;6.78;;;18.30;99.90;;;;;;5051324;28;20205;-66
2022/10/13 08:17:50;;;;;;;10.95;6.22;;;18.30;99.90;;;;;;5052131;28;20264;-66
2022/10/13 08:20:16;;;;;;;8.80;6.03;;;18.30;99.90;;;;;;5052186;28;20228;-64
2022/10/13 08:22:43;;;;;;;9.07;5.70;;;18.30;99.90;;;;;;5054323;28;20212;-66
2022/10/13 08:25:10;;;;;;;10.40;5.78;;;18.40;99.90;;;;;;5047906;28;20495;-65
2022/10/13 08:27:38;;;;;;;9.23;5.60;;;18.40;99.90;;;;;;5051749;28;20221;-65
2022/10/13 08:30:05;;;;;;;14.25;5.57;;;18.50;99.90;;;;;;5050714;28;20693;-66
2022/10/13 08:32:32;;;;;;;7.93;4.95;;;18.50;99.90;;;;;;5051141;28;20685;-65
2022/10/13 08:35:00;;;;;;;10.85;5.93;;;18.30;99.90;;;;;;5050893;28;20213;-65
2022/10/13 08:37:27;;;;;;;8.95;5.40;;;18.20;99.90;;;;;;5050981;28;20248;-65
2022/10/13 08:39:56;;;;;;;8.52;5.32;;;18.10;99.90;;;;;;5050986;28;20216;-65
2022/10/13 08:42:23;;;;;;;12.57;5.80;;;18.00;99.90;;;;;;5051197;28;20241;-65
2022/10/13 08:44:53;;;;;;;11.63;5.90;;;17.90;99.90;;;;;;5051156;28;20216;-66
2022/10/13 08:47:33;;;;;;;11.23;5.85;;;17.90;99.90;;;;;;5050709;28;20229;-66
2022/10/13 08:50:04;;;;;;;10.13;5.60;;;17.80;99.90;;;;;;5050131;28;20216;-66
2022/10/13 08:52:45;;;;;;;7.88;5.43;;;17.80;99.90;;;;;;5051083;28;20427;-68
2022/10/13 08:55:17;;;;;;;10.18;5.75;;;17.80;99.90;;;;;;5051174;28;20213;-65
2022/10/13 08:57:44;;;;;;;11.57;6.28;;;17.80;99.90;;;;;;5050900;28;20237;-65
2022/10/13 09:00:13;;;;;;;10.38;5.53;;;17.90;99.90;;;;;;5050515;28;20282;-65
2022/10/13 09:02:41;;;;;;;10.38;5.50;;;18.00;99.90;;;;;;5050422;28;20297;-66
2022/10/13 09:05:14;;;;;;;11.40;5.25;;;18.20;99.90;;;;;;5050571;28;20209;-66
2022/10/13 09:07:41;;;;;;;8.90;5.38;;;18.40;99.90;;;;;;5050676;28;20234;-66
2022/10/13 09:10:09;;;;;;;10.80;6.07;;;18.40;99.90;;;;;;5049640;28;20213;-69
2022/10/13 09:12:36;;;;;;;11.48;5.65;;;18.60;99.90;;;;;;5050470;28;20201;-66
2022/10/13 09:15:08;;;;;;;11.05;5.22;;;18.80;99.90;;;;;;5050259;28;20210;-65
2022/10/13 09:17:35;;;;;;;11.20;5.47;;;18.80;99.90;;;;;;5050482;28;20779;-67
2022/10/13 09:20:07;;;;;;;8.85;5.18;;;18.90;99.90;;;;;;5050364;28;20213;-66
2022/10/13 09:22:36;;;;;;;10.43;5.07;;;19.20;99.90;;;;;;5050214;28;20198;-67
2022/10/13 09:25:18;;;;;;;7.45;4.30;;;19.40;99.90;;;;;;5050301;28;20585;-68
2022/10/13 09:27:48;;;;;;;27.35;19.35;;;19.60;99.90;;;;;;5052258;28;20323;-66
2022/10/13 09:30:25;;;;;;;8.85;6.18;;;19.80;99.90;;;;;;5054044;28;20205;-66
2022/10/13 09:33:05;;;;;;;9.80;4.95;;;20.00;99.90;;;;;;5054605;28;20216;-65
2022/10/13 09:35:33;;;;;;;8.13;4.93;;;20.20;99.90;;;;;;5054268;28;20227;-67
2022/10/13 09:38:07;;;;;;;9.48;4.53;;;20.40;99.90;;;;;;5053618;28;20234;-66
2022/10/13 09:40:34;;;;;;;7.50;4.63;;;20.60;99.90;;;;;;5054715;28;20201;-66
2022/10/13 09:43:03;;;;;;;8.85;4.88;;;20.80;99.90;;;;;;5054577;28;20583;-65
2022/10/13 09:45:30;;;;;;;14.13;4.40;;;20.90;99.90;;;;;;5054452;28;20208;-66
2022/10/13 09:47:59;;;;;;;7.38;4.35;;;21.10;99.90;;;;;;5053973;28;20713;-65
2022/10/13 09:50:28;;;;;;;7.60;4.28;;;21.30;99.90;;;;;;5056000;28;20209;-65
2022/10/13 09:53:17;;;;;;;6.70;3.88;;;21.40;99.90;;;;;;5054045;28;20205;-66
2022/10/13 09:55:45;;;;;;;8.40;5.00;;;21.50;99.90;;;;;;5053817;28;20206;-64
2022/10/13 09:58:18;;;;;;;9.57;4.25;;;21.60;99.90;;;;;;5053679;28;20598;-68
2022/10/13 10:00:45;;;;;;;7.32;4.68;;;21.70;99.90;;;;;;5054194;28;20206;-66
2022/10/13 10:03:17;;;;;;;7.35;3.97;;;21.80;99.90;;;;;;5054565;28;20213;-66
2022/10/13 10:05:49;;;;;;;19.65;12.75;;;21.80;99.90;;;;;;5054844;28;20205;-66
2022/10/13 10:08:26;;;;;;;7.82;5.32;;;21.90;99.90;;;;;;5053906;28;20687;-66
2022/10/13 10:10:55;;;;;;;11.43;4.40;;;21.90;99.90;;;;;;5054369;28;20275;-63
2022/10/13 10:13:23;;;;;;;7.72;4.30;;;21.90;99.90;;;;;;5054282;28;20209;-65
2022/10/13 10:15:55;;;;;;;7.15;4.40;;;21.90;99.90;;;;;;5054579;28;20228;-66
2022/10/13 10:18:31;;;;;;;8.63;4.30;;;21.80;99.90;;;;;;5053834;28;20283;-66
2022/10/13 10:21:06;;;;;;;6.50;4.10;;;21.80;99.90;;;;;;5054601;28;20205;-65
2022/10/13 10:23:43;;;;;;;6.88;4.50;;;21.90;99.90;;;;;;5054165;28;20216;-65
2022/10/13 10:26:16;;;;;;;8.18;4.30;;;21.80;99.90;;;;;;5054010;28;20205;-64
2022/10/13 10:28:51;;;;;;;7.38;3.85;;;21.70;99.90;;;;;;5053644;28;20206;-63
2022/10/13 10:31:43;;;;;;;8.20;4.10;;;21.70;99.90;;;;;;5053900;28;20225;-64
2022/10/13 10:34:36;;;;;;;10.02;4.25;;;21.70;99.90;;;;;;5054183;28;20216;-63
2022/10/13 10:37:16;;;;;;;7.95;4.40;;;21.60;99.90;;;;;;5054192;28;20240;-63
2022/10/13 10:39:48;;;;;;;6.95;5.18;;;21.50;99.90;;;;;;5055895;28;20232;-63
2022/10/13 10:42:29;;;;;;;11.15;4.75;;;21.30;99.90;;;;;;5055374;28;20202;-63
2022/10/13 10:44:57;;;;;;;8.05;4.68;;;21.20;99.90;;;;;;5055365;28;20205;-63
2022/10/13 10:47:27;;;;;;;11.27;5.07;;;21.00;99.90;;;;;;5054025;28;20665;-64
2022/10/13 10:50:00;;;;;;;9.75;4.90;;;21.00;99.90;;;;;;5053613;28;20202;-64
2022/10/13 10:52:36;;;;;;;7.57;4.47;;;21.00;99.90;;;;;;5053924;28;20233;-64
2022/10/13 10:55:14;;;;;;;6.50;4.20;;;20.80;99.90;;;;;;5053728;28;20216;-64
2022/10/13 10:57:52;;;;;;;9.73;4.43;;;20.80;99.90;;;;;;5053936;28;20229;-64
2022/10/13 11:00:22;;;;;;;9.63;4.60;;;20.70;99.90;;;;;;5053326;28;20205;-64
2022/10/13 11:03:00;;;;;;;12.25;4.22;;;20.80;99.90;;;;;;5053845;28;20631;-63
2022/10/13 11:05:46;;;;;;;7.45;4.50;;;20.80;99.90;;;;;;5053625;28;20212;-63
2022/10/13 11:08:26;;;;;;;8.55;4.30;;;20.70;99.90;;;;;;5053014;28;20225;-64
2022/10/13 11:11:27;;;;;;;6.40;4.30;;;20.60;99.90;;;;;;5054680;28;20217;-63
2022/10/13 11:13:57;;;;;;;8.45;5.40;;;20.50;99.90;;;;;;5054221;28;20259;-64
2022/10/13 11:16:29;;;;;;;12.85;6.40;;;20.70;99.90;;;;;;5053962;28;21525;-64
2022/10/13 11:19:05;;;;;;;9.20;4.82;;;20.80;99.90;;;;;;5053441;28;20289;-64
2022/10/13 11:22:23;;;;;;;10.40;4.65;;;21.00;99.90;;;;;;5054068;28;20204;-63
2022/10/13 11:25:23;;;;;;;9.10;4.80;;;21.00;99.90;;;;;;5012041;28;20673;-64
2022/10/13 11:27:50;;;;;;;9.00;4.50;;;20.90;99.90;;;;;;5053596;28;20234;-63
2022/10/13 11:30:49;;;;;;;9.05;4.60;;;20.90;99.90;;;;;;5052664;28;20232;-64
2022/10/13 11:33:48;;;;;;;5.60;3.78;;;20.80;99.90;;;;;;5052936;28;20229;-64
2022/10/13 11:36:38;;;;;;;6.53;4.68;;;20.80;99.90;;;;;;5033527;28;20209;-63
2022/10/13 11:39:35;;;;;;;9.43;4.50;;;20.90;99.90;;;;;;5053143;28;20217;-63
2022/10/13 11:42:11;;;;;;;8.18;4.20;;;21.10;99.90;;;;;;5053861;28;20205;-63
2022/10/13 11:44:46;;;;;;;8.40;4.75;;;21.20;99.90;;;;;;5055637;28;20205;-62
2022/10/13 11:47:28;;;;;;;8.38;4.88;;;21.30;99.90;;;;;;5061669;28;20235;-64
2022/10/13 11:50:06;;;;;;;12.00;4.30;;;21.40;99.90;;;;;;5061270;28;20220;-63
2022/10/13 11:53:02;;;;;;;10.82;4.50;;;21.50;99.90;;;;;;5059480;28;20222;-63
2022/10/13 11:55:42;;;;;;;9.88;4.50;;;21.50;99.90;;;;;;5059384;28;20677;-64
2022/10/13 11:58:13;;;;;;;6.22;3.65;;;21.40;99.90;;;;;;5056023;28;20237;-63
2022/10/13 12:00:53;;;;;;;11.38;4.32;;;21.30;99.90;;;;;;5052760;28;20210;-64
2022/10/13 12:03:24;;;;;;;5.55;3.78;;;21.20;99.90;;;;;;5052510;28;20210;-63
2022/10/13 12:05:52;;;;;;;6.93;4.18;;;21.20;99.90;;;;;;5052182;28;20213;-63
2022/10/13 12:08:20;;;;;;;10.48;4.10;;;21.30;99.90;;;;;;5051779;28;20225;-63
2022/10/13 12:10:54;;;;;;;9.27;4.35;;;21.40;99.90;;;;;;5052810;28;20712;-63
2022/10/13 12:13:23;;;;;;;9.35;4.20;;;21.60;99.90;;;;;;5052731;28;20229;-63
2022/10/13 12:15:58;;;;;;;11.05;4.32;;;21.70;99.90;;;;;;5052280;28;20205;-62
2022/10/13 12:18:32;;;;;;;7.60;4.30;;;21.80;99.90;;;;;;5051629;28;20225;-63
2022/10/13 12:21:01;;;;;;;8.57;4.32;;;21.70;99.90;;;;;;5053017;28;20219;-64
2022/10/13 12:23:31;;;;;;;9.20;3.80;;;21.60;99.90;;;;;;5052326;28;20201;-64
2022/10/13 12:25:59;;;;;;;7.60;3.95;;;21.60;99.90;;;;;;5052262;28;20221;-65
2022/10/13 12:28:27;;;;;;;7.57;4.38;;;21.70;99.90;;;;;;5051180;28;20743;-65
2022/10/13 12:30:56;;;;;;;11.25;4.30;;;21.70;99.90;;;;;;5051965;28;20202;-65
2022/10/13 12:33:29;;;;;;;6.28;4.20;;;21.90;99.90;;;;;;5052076;28;20221;-64
2022/10/13 12:36:10;;;;;;;8.07;3.83;;;22.00;99.90;;;;;;5052119;28;20593;-66
2022/10/13 12:38:37;;;;;;;5.93;4.03;;;22.00;99.90;;;;;;5051429;28;20267;-66
2022/10/13 12:41:05;;;;;;;10.18;4.00;;;22.10;99.90;;;;;;5051983;28;20628;-66
2022/10/13 12:43:32;;;;;;;5.95;3.35;;;22.10;99.90;;;;;;5051996;28;20205;-65
2022/10/13 12:45:58;;;;;;;8.55;4.00;;;22.20;99.90;;;;;;5051685;28;20712;-66
2022/10/13 12:48:32;;;;;;;8.75;4.03;;;22.20;99.90;;;;;;5051134;28;20225;-65
2022/10/13 12:51:18;;;;;;;11.25;4.55;;;22.10;99.90;;;;;;5051811;28;20212;-66